• Join FlightAware (Why Join?)
  • Login
  • US Flag 
09:52AM EDT


 

Airport Tracker/Info


-or-


 

Live Flight TrackerFlight Track Log ✈ UPS1121 ✈ 13-Aug-2013 ✈ KALB - KBDL

Flight Track Log - Related Links

Times and Time Zones

All times are in EDT time to prevent confusion due to time zone crossing. See the UPS1121 flight status page for this flight to view local times or setup timezone preferences in your user account.

Time Position Orientation Groundspeed Altitude Reporting Facility
EDT Latitude Longitude Course Direction KTS MPH feet Rate Location/Type
08:36PM 42.7339 -73.8053 127° Southeast 173 199 1,400  Level Boston Center
08:38PM 42.6522 -73.6567 127° Southeast 341 392 6,800 2,820 Climbing Boston Center
08:39PM 42.5844 -73.5681 136° Southeast 317 365 10,500 2,040 Climbing Boston Center
08:40PM 42.5228 -73.4881 136° Southeast 331 381 11,000 240 Climbing Boston Center
08:41PM 42.4444 -73.3825 135° Southeast 386 444 11,000  Level Boston Center
08:42PM 42.3889 -73.3031 133° Southeast 378 435 11,000  Level Boston Center
08:43PM 42.3356 -73.1872 122° Southeast 373 429 11,000  Level Boston Center
08:44PM 42.3072 -73.0436 105° East 373 429 11,000 -420 Level Boston Center
08:45PM 42.3056 -72.9117 91° East 338 389 10,200 -1,080 Descending Boston Center
08:46PM 42.2894 -72.8189 103° East 299 344 9,000 -1,440 Descending Boston Center
08:47PM 42.2375 -72.7178 125° Southeast 289 333 7,500 -1,620 Descending Boston Center
08:48PM 42.1897 -72.6306 126° Southeast 291 335 5,800 -1,920 Descending Boston Center
08:49PM 42.1356 -72.5550 134° Southeast 266 306 3,700 -1,500 Descending Boston Center
08:50PM 42.0878 -72.5100 145° Southeast 227 261 3,000 -720 Descending Boston Center
08:51PM 42.0481 -72.5408 210° Southwest 195 224 2,500 -480 Descending Boston Center
08:51PM 42.0314 -72.5658 228° Southwest 184 212 2,400 -540 Descending Boston Center
08:52PM 42.0106 -72.5911 222° Southwest 157 181 2,000 -720 Descending Boston Center
08:53PM 42.0000 -72.6078 230° Southwest 172 198 1,600 -780 Descending Boston Center
08:54PM 41.9731 -72.6439 225° Southwest 143 165 800 -660 Descending Boston Center
08:55PM 41.9564 -72.6689 228° Southwest 130 150 300 -540 Descending Boston Center